Airfield :
LOGIN :

Register | Disclaimer

   EN    FR    IT 

 










Legend :    VFR   Marginal VFR   IFR   Intensive IFR   Very Intensive IFR
Visi :
Ceiling :
>= 8 km
>= 3000ft
5 to 8 km
1000 to 3000 ft
1500m to 5 km
500 to 1000 ft
800 to 1500m
200 to 500 ft
< 800m
< 200 ft
Symbols :   Thunderstorms  Fog  Heavy snow  Heavy precipitations  Wind > 20 kt
SIGMETs :     Misc.  Thunderstorms  Icing  Turbulence  Mountain Waves  Volcanic Ashes






- Airport Elevation : 13 ft
- IATA code : LYX


EGMD - Lydd

CURRENT METAR :
  • 230150Z AUTO 21011KT 8000 -RA FEW024/// SCT032/// BKN038/// 17/16 Q1005

EXPIRED METARs :
  • 230120Z AUTO 22009KT 9999 SCT048/// 17/16 Q1005
  • 230050Z AUTO 22011KT 9999 NCD 17/15 Q1005
  • 230020Z AUTO 23008KT 9999 FEW011/// 17/15 Q1005
  • 222350Z AUTO 23011KT 9999 SCT010/// SCT025/// 17/16 Q1006
  • 222320Z AUTO 23014KT 9999 SCT009/// BKN014/// BKN019/// 18/16 Q1006

TAF TAF EGMD
Valid from the 23 at 00:00 until the 23 at 09:00 UTC


222256Z 2300/2309 22013KT 9999 SCT015
TEMPO 2300/2309 8000 BKN010
PROB40
TEMPO 2300/2309 4000 DZ HZ BKN007
ATIS : +44 1797 322 422



MET'MAP, your aeronautical weather chart ! - Copyright ORBIFLY December 2007 - Disclaimer

ORBIFLY MET'MAP TEAM :

Programming & Development : Alexandra Zaïnal
Concept & original design : Baudouin d'Aumeries
Assistance for programming : Marc-Olivier Méhu
Technical & hardware support : Manuel Goepfert

Contact : metmap@orbifly.com




SOURCES & CREDITS :

   NOAA